Portada
METAR-TAF:

METAR-TAF

Aeropuertos :

Aeropuerto Internacional de Lárnaca

Lárnaca, Chipre

latitud: 34-53N, longitud: 033-38E, altitud: 2 m

Observación

El informe se hizo hace 44 minutos, a las 13:30 UTC
Viento 18 kt del noreste
Temperatura 14°C
Humedad 77%
Presión 1015 hPa
Visibilidad 10 km o más
Escasas nubes a una altura de 1600 ft
Nubes dispersas a una altura de 3500 ft

METAR: LCLK 171330Z 04018KT 9999 FEW016 SCT035 14/10 Q1015 NOSIG

Hora: 16:14 (14:14 UTC)

Pronóstico

El informe se hizo hace 2 horas y 44 minutos, a las 11:30 UTC
Pronóstico válido del 17 a las 12 UTC al 18 a las 12 UTC
Viento 15 kt del noreste
Visibilidad 10 km o más
Escasas nubes a una altura de 2000 ft
Nubes dispersas a una altura de 4000 ft
Evolucionando progresivamente
del 17 a las 15 UTC al 17 a las 19 UTC
Viento 8 kt del norte

TAF: LCLK 171130Z 1712/1812 05015KT 9999 FEW020 SCT040 BECMG 1715/1719 35008KT

Observaciones y pronósticos meteorológicos de más de 4000 aeropuertos (mensajes METAR y TAF).

Los puntos amarillos y rojos representan las estaciones disponibles.

Ponga el ratón en el punto deseado para ver el nombre de la estación.

Haga clic para ver las observaciones y los pronósticos meteorológicos.

Para cambiar el mapa : haga clic en los botones verdes con una cruz de color negro para hacer un zoom, en el botón verde con un guión para alejar o en las flechas verdes para mapas adyacentes.


METAR-TAF: